aviador You're here:

LQMO Decoded Metar

MOSTAR in BOSNIA-HERCEGOVINA
Report Time2018-01-19 05:30:00
UTC Time2018-01-19 05:36:46
Flight Rules vfr VFR
WindVRB at 02 kt
Visibility9999 m
Phenomena:N/A
Clouds:Broken 046 Hf
Expected CloudBase > 800 ft AGL from Temp-Dew spread
Ceiling4,600 ft
Temp02°C (ISA -12)
Dew Point00°C (87% RH)
AAT-0.7°C
QNH1014 hPa
Density Alt-1,089 ft
Elevation354 ft
Report Wrong Elevation
Raw Report
LQMO 190530Z VRB02KT 9999 BKN046 02/00 Q1014=

Extra information for LQMO:More info

Metar Taf Metar & Taf Last 4 Metars F.Rules Stats Wind Profile Meteogram Temp Stats Airport Information Weather charts Add Link Nearby VenuesMetar ALERT Operation Metar Decoded Social comments